createdAt,value
2022-08-12T00:00:37.165Z,97860.53
2022-08-12T00:03:23.461Z,97855.97
2022-08-12T00:06:10.470Z,97856.59
2022-08-12T00:08:57.640Z,97846.50
2022-08-12T00:11:45.764Z,97843.00
2022-08-12T00:14:32.729Z,97839.81
2022-08-12T00:17:18.881Z,97842.47
2022-08-12T00:20:05.634Z,97839.56
2022-08-12T00:22:52.927Z,97838.28
2022-08-12T00:26:23.156Z,97844.44
2022-08-12T00:29:14.002Z,97846.03
2022-08-12T00:32:01.245Z,97842.63
2022-08-12T00:34:50.057Z,97845.31
2022-08-12T00:37:40.153Z,97839.53
2022-08-12T00:40:32.293Z,97839.28
2022-08-12T00:43:00.061Z,97839.03
2022-08-12T00:45:47.590Z,97836.16
2022-08-12T00:48:16.233Z,97830.88
2022-08-12T00:50:45.425Z,97834.31
2022-08-12T00:53:13.816Z,97834.56
2022-08-12T00:55:45.160Z,97828.94
2022-08-12T00:58:17.785Z,97831.56
2022-08-12T01:00:45.279Z,97833.44
2022-08-12T01:03:18.669Z,97828.19
2022-08-12T01:06:07.443Z,97831.34
2022-08-12T01:08:53.546Z,97820.78
2022-08-12T01:11:31.848Z,97820.78
2022-08-12T01:14:02.140Z,97827.94
2022-08-12T01:16:29.891Z,97826.91
2022-08-12T01:18:58.493Z,97826.91
2022-08-12T01:21:28.395Z,97824.53
2022-08-12T01:24:30.812Z,97824.53
2022-08-12T01:27:01.480Z,97823.78
2022-08-12T01:29:32.962Z,97819.81
2022-08-12T01:32:08.818Z,97817.69
2022-08-12T01:34:39.744Z,97825.06
2022-08-12T01:37:09.745Z,97818.47
2022-08-12T01:40:31.720Z,97815.06
2022-08-12T01:42:49.780Z,97818.72
2022-08-12T01:45:24.671Z,97815.81
2022-08-12T01:48:24.014Z,97811.34
2022-08-12T01:51:06.077Z,97811.88
2022-08-12T01:54:01.358Z,97812.94
2022-08-12T01:56:32.341Z,97805.50
2022-08-12T01:59:21.456Z,97801.78
2022-08-12T02:01:54.090Z,97805.00
2022-08-12T02:05:18.432Z,97797.81
2022-08-12T02:08:44.540Z,97801.03
2022-08-12T02:11:35.008Z,97803.94
2022-08-12T02:14:24.884Z,97797.56
2022-08-12T02:17:55.267Z,97814.22
2022-08-12T02:20:35.279Z,97804.69
2022-08-12T02:23:20.774Z,97810.00
2022-08-12T02:25:50.356Z,97807.09
2022-08-12T02:28:17.677Z,97810.25
2022-08-12T02:30:45.725Z,97805.72
2022-08-12T02:33:14.065Z,97810.50
2022-08-12T02:35:41.411Z,97812.31
2022-08-12T02:38:12.837Z,97811.47
2022-08-12T02:40:45.488Z,97802.16
2022-08-12T02:43:45.536Z,97805.56
2022-08-12T02:46:18.301Z,97806.09
2022-08-12T02:48:53.078Z,97805.69
2022-08-12T02:51:29.419Z,97804.34
2022-08-12T02:54:05.648Z,97808.56
2022-08-12T02:56:40.795Z,97819.16
2022-08-12T02:59:12.437Z,97814.66
2022-08-12T03:01:56.049Z,97809.28
2022-08-12T03:04:44.562Z,97811.38
2022-08-12T03:07:56.209Z,97815.88
2022-08-12T03:10:25.123Z,97811.06
2022-08-12T03:13:08.325Z,97801.53
2022-08-12T03:15:36.024Z,97808.47
2022-08-12T03:18:27.232Z,97804.78
2022-08-12T03:20:58.572Z,97806.94
2022-08-12T03:23:29.548Z,97808.25
2022-08-12T03:26:02.393Z,97808.00
2022-08-12T03:28:54.406Z,97805.59
2022-08-12T03:31:30.210Z,97806.44
2022-08-12T03:34:12.728Z,97808.63
2022-08-12T03:36:42.922Z,97809.13
2022-08-12T03:39:18.257Z,97805.13
2022-08-12T03:42:28.207Z,97801.72
2022-08-12T03:45:53.414Z,97805.13
2022-08-12T03:48:43.991Z,97807.59
2022-08-12T03:51:30.500Z,97800.41
2022-08-12T03:54:17.174Z,97803.81
2022-08-12T03:57:03.246Z,97806.47
2022-08-12T03:59:48.966Z,97807.53
2022-08-12T04:02:17.302Z,97805.13
2022-08-12T04:04:45.719Z,97803.25
2022-08-12T04:07:17.664Z,97805.91
2022-08-12T04:09:47.128Z,97809.38
2022-08-12T04:12:33.557Z,97807.75
2022-08-12T04:15:02.212Z,97818.81
2022-08-12T04:17:30.357Z,97811.63
2022-08-12T04:19:58.952Z,97813.75
2022-08-12T04:22:30.532Z,97826.22
2022-08-12T04:25:02.433Z,97824.94
2022-08-12T04:27:31.869Z,97824.09
2022-08-12T04:30:21.291Z,97828.06
2022-08-12T04:32:52.320Z,97824.34
2022-08-12T04:35:21.794Z,97823.78
2022-08-12T04:38:00.660Z,97815.03
2022-08-12T04:40:32.874Z,97824.34
2022-08-12T04:43:01.848Z,97824.56
2022-08-12T04:45:31.158Z,97824.84
2022-08-12T04:47:59.214Z,97831.19
2022-08-12T04:50:34.831Z,97827.47
2022-08-12T04:53:09.102Z,97835.38
2022-08-12T04:55:39.220Z,97835.56
2022-08-12T04:58:08.587Z,97835.31
2022-08-12T05:00:38.191Z,97843.06
2022-08-12T05:03:07.483Z,97842.06
2022-08-12T05:05:37.938Z,97839.75
2022-08-12T05:08:11.748Z,97836.66
2022-08-12T05:10:39.334Z,97842.50
2022-08-12T05:13:11.604Z,97840.75
2022-08-12T05:16:00.256Z,97839.53
2022-08-12T05:18:29.219Z,97847.19
2022-08-12T05:20:59.379Z,97849.75
2022-08-12T05:23:27.544Z,97845.44
2022-08-12T05:25:57.206Z,97841.25
2022-08-12T05:28:27.240Z,97846.59
2022-08-12T05:30:56.365Z,97837.00
2022-08-12T05:33:26.738Z,97843.13
2022-08-12T05:35:54.272Z,97848.31
2022-08-12T05:38:40.374Z,97845.25
2022-08-12T05:41:19.174Z,97847.00
2022-08-12T05:43:53.717Z,97853.22
2022-08-12T05:46:23.372Z,97846.22
2022-08-12T05:48:54.552Z,97846.38
2022-08-12T05:51:39.800Z,97851.41
2022-08-12T05:54:09.121Z,97853.88
2022-08-12T05:56:37.286Z,97861.94
2022-08-12T05:59:09.465Z,97856.97
2022-08-12T06:02:08.955Z,97863.50
2022-08-12T06:04:24.483Z,97864.00
2022-08-12T06:06:53.618Z,97857.81
2022-08-12T06:09:22.699Z,97866.34
2022-08-12T06:12:05.152Z,97868.50
2022-08-12T06:14:37.773Z,97862.50
2022-08-12T06:17:07.944Z,97862.41
2022-08-12T06:20:27.468Z,97856.72
2022-08-12T06:22:23.354Z,97857.78
2022-08-12T06:24:53.018Z,97860.63
2022-08-12T06:27:21.659Z,97869.16
2022-08-12T06:30:08.583Z,97876.91
2022-08-12T06:32:42.884Z,97874.16
2022-08-12T06:35:26.330Z,97886.75
2022-08-12T06:38:21.488Z,97878.09
2022-08-12T06:41:10.514Z,97886.38
2022-08-12T06:44:06.198Z,97878.63
2022-08-12T06:46:29.542Z,97882.31
2022-08-12T06:48:59.305Z,97884.22
2022-08-12T06:51:30.291Z,97890.19
2022-08-12T06:54:02.139Z,97896.44
2022-08-12T06:57:00.140Z,97887.56
2022-08-12T06:59:21.495Z,97888.75
2022-08-12T07:01:50.973Z,97887.91
2022-08-12T07:04:37.830Z,97881.28
2022-08-12T07:07:09.063Z,97879.34
2022-08-12T07:10:06.818Z,97877.03
2022-08-12T07:12:28.208Z,97877.81
2022-08-12T07:15:01.997Z,97874.31
2022-08-12T07:17:36.278Z,97870.00
2022-08-12T07:20:20.088Z,97876.19
2022-08-12T07:22:59.631Z,97865.31
2022-08-12T07:25:45.950Z,97865.31
2022-08-12T07:28:24.996Z,97858.53
2022-08-12T07:30:54.756Z,97858.56
2022-08-12T07:33:28.742Z,97859.34
2022-08-12T07:36:02.254Z,97861.84
2022-08-12T07:38:38.380Z,97863.00
2022-08-12T07:41:23.181Z,97862.56
2022-08-12T07:43:59.103Z,97857.09
2022-08-12T07:46:38.997Z,97859.13
2022-08-12T07:49:13.937Z,97861.00
2022-08-12T07:51:43.661Z,97854.31
2022-08-12T07:54:13.031Z,97860.94
2022-08-12T07:56:42.679Z,97861.44
2022-08-12T07:59:10.296Z,97860.72
2022-08-12T08:01:38.386Z,97859.34
2022-08-12T08:04:25.781Z,97859.03
2022-08-12T08:06:54.263Z,97849.75
2022-08-12T08:09:24.110Z,97842.34
2022-08-12T08:12:19.223Z,97846.78
2022-08-12T08:14:49.930Z,97843.00
2022-08-12T08:17:18.911Z,97839.16
2022-08-12T08:20:03.081Z,97844.19
2022-08-12T08:22:50.318Z,97844.81
2022-08-12T08:25:35.683Z,97833.00
2022-08-12T08:28:09.446Z,97839.63
2022-08-12T08:30:43.940Z,97848.59
2022-08-12T08:33:23.139Z,97845.66
2022-08-12T08:35:56.593Z,97852.03
2022-08-12T08:38:32.895Z,97849.50
2022-08-12T08:42:15.897Z,97847.38
2022-08-12T08:44:12.323Z,97842.31
2022-08-12T08:46:44.560Z,97843.38
2022-08-12T08:49:13.223Z,97850.72
2022-08-12T08:51:40.702Z,97845.63
2022-08-12T08:54:12.722Z,97841.38
2022-08-12T08:56:44.033Z,97832.56
2022-08-12T08:59:13.370Z,97834.88
2022-08-12T09:01:44.455Z,97843.09
2022-08-12T09:05:08.784Z,97841.81
2022-08-12T09:07:16.718Z,97851.78
2022-08-12T09:10:02.486Z,97843.31
2022-08-12T09:18:33.131Z,97836.66
2022-08-12T09:21:02.177Z,97832.75
2022-08-12T09:26:19.231Z,97838.34
2022-08-12T09:32:03.866Z,97839.19
2022-08-12T09:34:29.553Z,97835.25
2022-08-12T09:37:02.311Z,97833.44
2022-08-12T09:40:05.844Z,97829.97
2022-08-12T09:42:55.429Z,97830.66
2022-08-12T09:46:06.607Z,97817.81
2022-08-12T09:48:20.352Z,97807.50
2022-08-12T09:50:52.171Z,97805.00
2022-08-12T09:53:29.498Z,97814.19
2022-08-12T09:56:59.903Z,97812.09
2022-08-12T09:59:00.582Z,97799.13
2022-08-12T10:01:35.042Z,97809.03
2022-08-12T10:04:19.092Z,97803.16
2022-08-12T10:06:54.717Z,97810.69
2022-08-12T10:09:28.425Z,97805.13
2022-08-12T10:12:41.688Z,97805.69
2022-08-12T10:15:08.147Z,97808.72
2022-08-12T10:18:06.240Z,97803.72
2022-08-12T10:20:29.717Z,97800.97
2022-08-12T10:23:01.829Z,97804.09
2022-08-12T10:26:35.212Z,97789.84
2022-08-12T10:29:02.745Z,97781.06
2022-08-12T10:31:47.065Z,97785.47
2022-08-12T10:34:26.507Z,97786.63
2022-08-12T10:37:15.643Z,97784.59
2022-08-12T10:40:01.480Z,97786.03
2022-08-12T10:43:00.688Z,97784.47
2022-08-12T10:45:30.385Z,97781.69
2022-08-12T10:48:15.887Z,97775.03
2022-08-12T10:51:01.998Z,97778.41
2022-08-12T10:53:45.504Z,97778.94
2022-08-12T10:56:16.164Z,97781.25
2022-08-12T10:58:46.146Z,97774.25
2022-08-12T11:01:49.880Z,97772.94
2022-08-12T11:04:23.736Z,97768.00
2022-08-12T11:07:10.201Z,97767.75
2022-08-12T11:09:59.910Z,97765.16
2022-08-12T11:12:55.297Z,97763.44
2022-08-12T11:15:32.801Z,97769.06
2022-08-12T11:18:18.608Z,97758.94
2022-08-12T11:20:48.745Z,97762.69
2022-08-12T11:23:25.555Z,97753.59
2022-08-12T11:26:08.440Z,97755.03
2022-08-12T11:28:38.259Z,97758.63
2022-08-12T11:31:09.946Z,97752.03
2022-08-12T11:34:05.857Z,97762.53
2022-08-12T11:36:28.725Z,97756.25
2022-08-12T11:38:57.616Z,97755.50
2022-08-12T11:41:31.842Z,97748.91
2022-08-12T11:44:31.991Z,97748.16
2022-08-12T11:46:54.701Z,97748.13
2022-08-12T11:49:32.373Z,97750.75
2022-08-12T11:52:04.493Z,97748.00
2022-08-12T11:54:51.935Z,97749.81
2022-08-12T11:58:08.162Z,97751.19
2022-08-12T12:02:55.410Z,97735.28
2022-08-12T12:05:22.831Z,97734.50
2022-08-12T12:08:40.523Z,97742.22
2022-08-12T12:10:43.454Z,97731.22
2022-08-12T12:13:23.293Z,97731.13
2022-08-12T12:16:00.925Z,97730.28
2022-08-12T12:18:35.055Z,97734.00
2022-08-12T12:21:08.334Z,97720.63
2022-08-12T12:23:36.575Z,97713.97
2022-08-12T12:26:08.345Z,97717.41
2022-08-12T12:28:39.716Z,97718.91
2022-08-12T12:31:15.211Z,97716.50
2022-08-12T12:33:57.883Z,97712.81
2022-08-12T12:36:30.271Z,97711.28
2022-08-12T12:39:00.065Z,97703.91
2022-08-12T12:42:41.605Z,97695.03
2022-08-12T12:44:30.159Z,97690.34
2022-08-12T12:47:04.478Z,97696.72
2022-08-12T12:49:53.772Z,97698.78
2022-08-12T12:52:21.459Z,97695.09
2022-08-12T12:54:55.657Z,97695.13
2022-08-12T12:57:59.126Z,97699.66
2022-08-12T13:00:17.440Z,97698.81
2022-08-12T13:02:54.036Z,97699.66
2022-08-12T13:05:30.486Z,97690.25
2022-08-12T13:08:28.042Z,97688.16
2022-08-12T13:11:01.823Z,97689.44
2022-08-12T13:14:09.814Z,97687.31
2022-08-12T13:16:21.679Z,97686.47
2022-08-12T13:18:53.867Z,97683.16
2022-08-12T13:21:33.429Z,97672.28
2022-08-12T13:24:09.631Z,97672.41
2022-08-12T13:26:40.217Z,97678.34
2022-08-12T13:29:11.208Z,97671.69
2022-08-12T13:32:17.568Z,97665.91
2022-08-12T13:34:34.838Z,97670.91
2022-08-12T13:37:09.911Z,97674.75
2022-08-12T13:39:39.184Z,97666.50
2022-08-12T13:42:14.459Z,97665.78
2022-08-12T13:44:42.635Z,97670.34
2022-08-12T13:47:19.630Z,97666.94
2022-08-12T13:49:55.169Z,97657.94
2022-08-12T13:52:24.314Z,97665.84
2022-08-12T13:54:55.145Z,97668.03
2022-08-12T13:57:26.514Z,97662.53
2022-08-12T14:00:00.347Z,97665.28
2022-08-12T14:02:28.077Z,97662.78
2022-08-12T14:04:56.717Z,97662.06
2022-08-12T14:07:26.242Z,97647.78
2022-08-12T14:10:16.267Z,97648.06
2022-08-12T14:12:54.788Z,97648.72
2022-08-12T14:15:36.737Z,97650.41
2022-08-12T14:18:14.859Z,97642.94
2022-08-12T14:20:49.215Z,97638.53
2022-08-12T14:24:04.473Z,97646.28
2022-08-12T14:26:17.074Z,97646.09
2022-08-12T14:28:57.520Z,97646.84
2022-08-12T14:31:31.366Z,97641.59
2022-08-12T14:33:59.918Z,97644.22
2022-08-12T14:36:27.490Z,97639.75
2022-08-12T14:38:56.063Z,97643.16
2022-08-12T14:41:36.877Z,97636.03
2022-08-12T14:45:01.156Z,97635.53
2022-08-12T14:47:06.088Z,97636.22
2022-08-12T14:50:37.368Z,97632.16
2022-08-12T14:53:13.534Z,97638.59
2022-08-12T14:58:02.492Z,97625.22
2022-08-12T15:00:52.207Z,97628.81
2022-08-12T15:03:52.178Z,97629.00
2022-08-12T15:06:38.991Z,97635.00
2022-08-12T15:09:06.556Z,97627.38
2022-08-12T15:11:54.399Z,97631.91
2022-08-12T15:14:21.716Z,97627.38
2022-08-12T15:16:51.145Z,97626.69
2022-08-12T15:20:11.648Z,97625.97
2022-08-12T15:22:37.831Z,97625.03
2022-08-12T15:24:53.504Z,97621.59
2022-08-12T15:27:22.338Z,97621.94
2022-08-12T15:30:09.871Z,97628.22
2022-08-12T15:32:37.695Z,97624.31
2022-08-12T15:35:12.156Z,97619.69
2022-08-12T15:38:09.250Z,97617.69
2022-08-12T15:40:33.510Z,97616.47
2022-08-12T15:43:04.763Z,97619.31
2022-08-12T15:45:41.861Z,97609.94
2022-08-12T15:48:16.866Z,97607.50
2022-08-12T15:50:48.029Z,97611.78
2022-08-12T15:53:40.823Z,97608.91
2022-08-12T15:56:12.622Z,97612.63
2022-08-12T15:58:41.563Z,97606.81
2022-08-12T16:01:15.529Z,97603.31
2022-08-12T16:04:00.125Z,97602.09
2022-08-12T16:06:50.868Z,97608.22
2022-08-12T16:09:21.548Z,97601.50
2022-08-12T16:12:03.334Z,97599.06
2022-08-12T16:14:33.144Z,97598.56
2022-08-12T16:17:02.458Z,97598.78
2022-08-12T16:20:03.921Z,97599.81
2022-08-12T16:22:19.160Z,97596.94
2022-08-12T16:27:19.387Z,97584.47
2022-08-12T16:29:57.430Z,97598.03
2022-08-12T16:32:31.727Z,97594.03
2022-08-12T16:35:00.825Z,97603.56
2022-08-12T16:37:32.479Z,97595.38
2022-08-12T16:40:18.767Z,97592.47
2022-08-12T16:42:54.077Z,97592.81
2022-08-12T16:46:04.378Z,97587.25
2022-08-12T16:48:33.833Z,97589.97
2022-08-12T16:51:09.481Z,97578.22
2022-08-12T16:53:44.276Z,97575.53
2022-08-12T16:56:15.310Z,97584.03
2022-08-12T16:58:43.492Z,97579.94
2022-08-12T17:01:14.470Z,97577.72
2022-08-12T17:03:47.091Z,97576.84
2022-08-12T17:06:27.663Z,97579.06
2022-08-12T17:09:08.382Z,97564.59
2022-08-12T17:11:44.246Z,97562.47
2022-08-12T17:14:11.743Z,97558.72
2022-08-12T17:16:40.920Z,97569.56
2022-08-12T17:19:09.107Z,97573.03
2022-08-12T17:21:41.832Z,97577.84
2022-08-12T17:24:30.580Z,97574.16
2022-08-12T17:27:15.778Z,97575.38
2022-08-12T17:30:02.987Z,97573.25
2022-08-12T17:32:36.807Z,97568.47
2022-08-12T17:35:30.145Z,97560.38
2022-08-12T17:38:11.597Z,97570.91
2022-08-12T17:40:41.108Z,97574.34
2022-08-12T17:43:57.196Z,97573.84
2022-08-12T17:46:00.090Z,97576.53
2022-08-12T17:48:34.690Z,97577.56
2022-08-12T17:51:15.728Z,97571.47
2022-08-12T17:54:11.158Z,97564.88
2022-08-12T17:56:37.400Z,97574.38
2022-08-12T17:59:12.389Z,97567.97
2022-08-12T18:01:45.510Z,97569.97
2022-08-12T18:04:22.707Z,97564.53
2022-08-12T18:07:03.482Z,97563.94
2022-08-12T18:09:36.869Z,97569.53
2022-08-12T18:12:35.487Z,97570.06
2022-08-12T18:15:10.493Z,97571.81
2022-08-12T18:18:00.125Z,97577.59
2022-08-12T18:20:29.770Z,97562.44
2022-08-12T18:23:01.350Z,97562.84
2022-08-12T18:26:15.389Z,97569.97
2022-08-12T18:28:43.134Z,97567.84
2022-08-12T18:31:19.152Z,97568.94
2022-08-12T18:33:52.533Z,97570.25
2022-08-12T18:36:22.589Z,97569.03
2022-08-12T18:38:56.209Z,97573.53
2022-08-12T18:41:34.252Z,97570.28
2022-08-12T18:44:11.534Z,97567.59
2022-08-12T18:46:53.797Z,97572.69
2022-08-12T18:49:38.721Z,97565.91
2022-08-12T18:52:11.384Z,97568.28
2022-08-12T18:54:53.283Z,97565.31
2022-08-12T18:58:05.806Z,97567.06
2022-08-12T19:00:21.557Z,97562.72
2022-08-12T19:02:53.464Z,97565.25
2022-08-12T19:05:23.445Z,97567.91
2022-08-12T19:08:11.517Z,97562.72
2022-08-12T19:10:50.665Z,97561.47
2022-08-12T19:13:39.510Z,97565.44
2022-08-12T19:16:12.646Z,97568.13
2022-08-12T19:18:44.778Z,97562.75
2022-08-12T19:21:15.982Z,97576.31
2022-08-12T19:24:05.086Z,97569.38
2022-08-12T19:26:35.157Z,97567.31
2022-08-12T19:29:05.380Z,97568.59
2022-08-12T19:31:58.284Z,97566.69
2022-08-12T19:35:54.011Z,97568.72
2022-08-12T19:38:06.367Z,97567.47
2022-08-12T19:40:34.739Z,97570.31
2022-08-12T19:43:19.337Z,97567.66
2022-08-12T19:45:56.586Z,97569.69
2022-08-12T19:48:28.023Z,97578.34
2022-08-12T19:50:59.443Z,97574.69
2022-08-12T19:53:56.594Z,97580.66
2022-08-12T19:56:25.163Z,97572.72
2022-08-12T19:58:53.909Z,97575.84
2022-08-12T20:01:21.629Z,97580.22
2022-08-12T20:03:57.424Z,97581.59
2022-08-12T20:06:29.255Z,97583.41
2022-08-12T20:08:59.688Z,97586.59
2022-08-12T20:12:14.725Z,97581.06
2022-08-12T20:14:19.678Z,97579.13
2022-08-12T20:16:57.243Z,97574.88
2022-08-12T20:19:52.501Z,97579.38
2022-08-12T20:22:24.048Z,97576.50
2022-08-12T20:25:07.420Z,97567.66
2022-08-12T20:28:05.656Z,97576.72
2022-08-12T20:30:37.202Z,97575.06
2022-08-12T20:33:17.808Z,97570.81
2022-08-12T20:36:13.143Z,97575.44
2022-08-12T20:38:39.764Z,97572.91
2022-08-12T20:41:16.448Z,97577.75
2022-08-12T20:43:55.019Z,97581.53
2022-08-12T20:46:31.606Z,97588.94
2022-08-12T20:49:14.483Z,97588.94
2022-08-12T20:51:55.098Z,97589.97
2022-08-12T20:54:32.312Z,97591.97
2022-08-12T20:57:10.218Z,97595.09
2022-08-12T20:59:47.638Z,97589.94
2022-08-12T21:02:16.261Z,97591.53
2022-08-12T21:05:02.125Z,97588.94
2022-08-12T21:07:51.572Z,97592.75
2022-08-12T21:10:20.644Z,97601.03
2022-08-12T21:12:50.899Z,97591.94
2022-08-12T21:15:30.190Z,97590.72
2022-08-12T21:18:11.821Z,97593.81
2022-08-12T21:20:54.231Z,97590.47
2022-08-12T21:23:23.280Z,97598.00
2022-08-12T21:25:56.803Z,97595.34
2022-08-12T21:28:31.921Z,97595.09
2022-08-12T21:32:34.164Z,97589.47
2022-08-12T21:34:07.147Z,97587.72
2022-08-12T21:36:48.201Z,97588.91
2022-08-12T21:39:35.154Z,97584.28
2022-08-12T21:42:06.920Z,97592.78
2022-08-12T21:45:48.177Z,97582.97
2022-08-12T21:47:25.056Z,97586.03
2022-08-12T21:50:03.285Z,97581.81
2022-08-12T21:52:35.649Z,97586.94
2022-08-12T21:55:18.056Z,97581.41
2022-08-12T21:57:54.366Z,97582.59
2022-08-12T22:00:32.382Z,97580.53
2022-08-12T22:04:04.218Z,97583.47
2022-08-12T22:06:31.807Z,97573.91
2022-08-12T22:09:16.492Z,97571.25
2022-08-12T22:11:56.467Z,97565.31
2022-08-12T22:14:30.621Z,97564.34
2022-08-12T22:17:00.623Z,97567.00
2022-08-12T22:19:28.667Z,97560.69
2022-08-12T22:21:56.874Z,97562.28
2022-08-12T22:24:30.046Z,97558.63
2022-08-12T22:27:31.254Z,97554.28
2022-08-12T22:30:16.439Z,97558.13
2022-08-12T22:32:50.501Z,97555.84
2022-08-12T22:35:47.682Z,97552.91
2022-08-12T22:38:23.950Z,97547.28
2022-08-12T22:41:01.823Z,97536.91
2022-08-12T22:44:00.522Z,97540.97
2022-08-12T22:46:38.854Z,97542.06
2022-08-12T22:49:06.542Z,97542.06
2022-08-12T22:52:03.098Z,97535.34
2022-08-12T22:54:36.012Z,97535.22
2022-08-12T22:57:11.965Z,97530.50
2022-08-12T22:59:55.139Z,97534.56
2022-08-12T23:02:28.758Z,97540.25
2022-08-12T23:04:58.469Z,97537.97
2022-08-12T23:07:26.013Z,97533.22
2022-08-12T23:09:54.817Z,97534.22
2022-08-12T23:12:46.770Z,97536.09
2022-08-12T23:15:14.734Z,97531.47
2022-08-12T23:17:43.540Z,97537.03
2022-08-12T23:20:15.082Z,97519.28
2022-08-12T23:23:02.736Z,97524.78
2022-08-12T23:25:54.208Z,97510.66
2022-08-12T23:28:37.556Z,97511.94
2022-08-12T23:31:06.576Z,97510.75
2022-08-12T23:34:01.432Z,97508.88
2022-08-12T23:36:31.666Z,97509.06
2022-08-12T23:40:13.283Z,97503.13
2022-08-12T23:42:16.592Z,97492.38
2022-08-12T23:44:48.366Z,97495.31
2022-08-12T23:47:21.494Z,97490.66
2022-08-12T23:49:57.183Z,97491.22
2022-08-12T23:52:28.626Z,97482.97
2022-08-12T23:55:25.150Z,97480.59
2022-08-12T23:58:21.825Z,97483.13
